createdAt,value
2022-09-04T00:00:12.308Z,1.33
2022-09-04T00:02:51.371Z,1.50
2022-09-04T00:05:31.623Z,1.55
2022-09-04T00:08:42.792Z,1.92
2022-09-04T00:11:38.277Z,2.00
2022-09-04T00:14:10.448Z,1.60
2022-09-04T00:17:00.204Z,1.70
2022-09-04T00:19:36.372Z,1.33
2022-09-04T00:22:16.170Z,1.40
2022-09-04T00:24:51.346Z,1.80
2022-09-04T00:27:24.292Z,1.40
2022-09-04T00:30:11.706Z,1.40
2022-09-04T00:32:51.945Z,1.42
2022-09-04T00:35:32.982Z,1.50
2022-09-04T00:38:06.779Z,1.50
2022-09-04T00:40:41.108Z,1.30
2022-09-04T00:43:27.306Z,1.45
2022-09-04T00:46:23.321Z,1.63
2022-09-04T00:49:21.054Z,1.50
2022-09-04T00:52:09.179Z,1.50
2022-09-04T00:55:13.932Z,1.30
2022-09-04T00:57:55.492Z,1.25
2022-09-04T01:00:24.163Z,1.50
2022-09-04T01:03:20.858Z,1.65
2022-09-04T01:06:19.332Z,1.40
2022-09-04T01:09:09.417Z,1.27
2022-09-04T01:12:21.724Z,1.40
2022-09-04T01:15:00.701Z,1.70
2022-09-04T01:17:43.935Z,1.77
2022-09-04T01:20:41.395Z,1.58
2022-09-04T01:23:27.762Z,1.85
2022-09-04T01:26:06.174Z,1.50
2022-09-04T01:28:54.523Z,1.33
2022-09-04T01:31:39.219Z,2.28
2022-09-04T01:34:36.765Z,1.60
2022-09-04T01:37:20.497Z,1.42
2022-09-04T01:40:13.135Z,1.38
2022-09-04T01:43:07.905Z,1.70
2022-09-04T01:46:13.212Z,1.40
2022-09-04T01:48:46.447Z,1.40
2022-09-04T01:51:25.169Z,1.70
2022-09-04T01:54:12.975Z,1.50
2022-09-04T01:56:49.609Z,1.52
2022-09-04T01:59:24.499Z,2.15
2022-09-04T02:01:54.729Z,1.50
2022-09-04T02:04:56.562Z,2.08
2022-09-04T02:07:29.339Z,1.52
2022-09-04T02:10:24.992Z,1.52
2022-09-04T02:13:20.477Z,1.80
2022-09-04T02:16:20.244Z,2.10
2022-09-04T02:18:54.537Z,1.67
2022-09-04T02:21:40.968Z,1.65
2022-09-04T02:24:08.062Z,1.70
2022-09-04T02:26:51.410Z,1.70
2022-09-04T02:29:33.396Z,1.60
2022-09-04T02:32:04.003Z,1.80
2022-09-04T02:34:41.981Z,1.67
2022-09-04T02:37:27.092Z,1.92
2022-09-04T02:40:12.559Z,1.88
2022-09-04T02:43:17.282Z,1.60
2022-09-04T02:46:14.191Z,1.55
2022-09-04T02:49:03.818Z,1.85
2022-09-04T02:51:55.846Z,2.67
2022-09-04T02:55:00.483Z,1.92
2022-09-04T02:57:39.695Z,1.80
2022-09-04T03:00:21.097Z,1.63
2022-09-04T03:03:05.786Z,2.10
2022-09-04T03:05:43.342Z,2.15
2022-09-04T03:08:25.315Z,1.95
2022-09-04T03:11:10.971Z,1.85
2022-09-04T03:13:59.636Z,1.70
2022-09-04T03:16:30.667Z,1.80
2022-09-04T03:19:16.408Z,1.70
2022-09-04T03:22:01.094Z,2.10
2022-09-04T03:25:00.282Z,1.88
2022-09-04T03:27:31.293Z,1.60
2022-09-04T03:30:10.803Z,1.70
2022-09-04T03:32:54.522Z,1.80
2022-09-04T03:35:27.551Z,1.80
2022-09-04T03:38:24.172Z,1.52
2022-09-04T03:41:07.384Z,1.83
2022-09-04T03:43:37.156Z,1.90
2022-09-04T03:46:14.010Z,2.03
2022-09-04T03:49:15.312Z,1.88
2022-09-04T03:52:20.927Z,2.00
2022-09-04T03:55:10.604Z,1.95
2022-09-04T03:58:05.803Z,2.30
2022-09-04T04:01:07.000Z,2.00
2022-09-04T04:03:57.598Z,1.88
2022-09-04T04:06:33.710Z,2.17
2022-09-04T04:09:19.085Z,2.08
2022-09-04T04:12:03.953Z,2.03
2022-09-04T04:15:02.093Z,2.05
2022-09-04T04:17:39.472Z,2.08
2022-09-04T04:20:51.361Z,2.13
2022-09-04T04:23:29.883Z,2.33
2022-09-04T04:26:27.642Z,2.50
2022-09-04T04:29:08.886Z,2.42
2022-09-04T04:31:45.003Z,2.45
2022-09-04T04:34:37.126Z,2.50
2022-09-04T04:37:24.486Z,2.22
2022-09-04T04:40:39.106Z,2.50
2022-09-04T04:43:11.677Z,2.60
2022-09-04T04:45:53.024Z,2.60
2022-09-04T04:48:36.937Z,2.65
2022-09-04T04:51:12.936Z,2.97
2022-09-04T04:53:49.847Z,2.92
2022-09-04T04:56:58.254Z,2.80
2022-09-04T04:59:38.362Z,3.10
2022-09-04T05:02:24.815Z,2.80
2022-09-04T05:05:25.173Z,2.70
2022-09-04T05:08:08.566Z,3.03
2022-09-04T05:10:51.122Z,2.72
2022-09-04T05:13:41.486Z,2.70
2022-09-04T05:18:55.481Z,2.58
2022-09-04T05:21:41.353Z,2.97
2022-09-04T05:24:22.845Z,3.05
2022-09-04T05:27:31.653Z,2.60
2022-09-04T05:30:03.806Z,2.83
2022-09-04T05:35:40.606Z,3.05
2022-09-04T05:38:51.572Z,3.42
2022-09-04T05:41:21.871Z,3.30
2022-09-04T05:44:01.866Z,3.30
2022-09-04T05:47:06.202Z,3.25
2022-09-04T05:49:48.087Z,2.75
2022-09-04T05:52:56.813Z,2.78
2022-09-04T05:55:39.529Z,2.97
2022-09-04T05:58:17.856Z,2.90
2022-09-04T06:00:51.624Z,2.95
2022-09-04T06:03:24.562Z,2.83
2022-09-04T06:05:59.488Z,3.10
2022-09-04T06:08:57.813Z,3.15
2022-09-04T06:12:02.447Z,2.50
2022-09-04T06:14:32.412Z,3.00
2022-09-04T06:17:05.493Z,3.13
2022-09-04T06:20:10.021Z,2.92
2022-09-04T06:22:56.079Z,2.97
2022-09-04T06:26:02.176Z,2.65
2022-09-04T06:29:08.257Z,2.88
2022-09-04T06:32:10.811Z,2.80
2022-09-04T06:35:02.674Z,3.20
2022-09-04T06:37:44.676Z,2.75
2022-09-04T06:40:29.190Z,2.97
2022-09-04T06:43:08.446Z,2.70
2022-09-04T06:46:02.325Z,2.78
2022-09-04T06:48:48.445Z,2.53
2022-09-04T06:51:37.284Z,3.22
2022-09-04T06:54:19.366Z,2.75
2022-09-04T06:56:56.419Z,3.03
2022-09-04T06:59:46.822Z,2.72
2022-09-04T07:02:32.420Z,2.53
2022-09-04T07:05:14.331Z,2.90
2022-09-04T07:08:13.334Z,3.05
2022-09-04T07:10:51.620Z,3.08
2022-09-04T07:13:33.688Z,3.10
2022-09-04T07:16:23.938Z,2.50
2022-09-04T07:19:15.740Z,2.40
2022-09-04T07:22:18.244Z,3.00
2022-09-04T07:25:12.915Z,3.00
2022-09-04T07:28:06.386Z,2.80
2022-09-04T07:30:42.544Z,3.10
2022-09-04T07:33:24.903Z,2.78
2022-09-04T07:35:57.826Z,2.88
2022-09-04T07:38:59.344Z,2.72
2022-09-04T07:41:44.454Z,2.85
2022-09-04T07:44:39.134Z,2.70
2022-09-04T07:47:18.821Z,3.35
2022-09-04T07:49:54.849Z,3.15
2022-09-04T07:52:33.857Z,3.72
2022-09-04T07:55:24.253Z,2.80
2022-09-04T07:57:54.371Z,3.65
2022-09-04T08:00:23.014Z,2.95
2022-09-04T08:03:27.633Z,2.80
2022-09-04T08:06:29.170Z,2.80
2022-09-04T08:09:24.034Z,3.28
2022-09-04T08:12:18.803Z,3.60
2022-09-04T08:15:02.017Z,3.38
2022-09-04T08:17:43.257Z,2.92
2022-09-04T08:20:22.192Z,2.70
2022-09-04T08:23:25.923Z,2.88
2022-09-04T08:26:18.733Z,2.90
2022-09-04T08:29:14.256Z,2.75
2022-09-04T08:31:58.646Z,3.17
2022-09-04T08:34:49.347Z,2.88
2022-09-04T08:37:53.146Z,2.72
2022-09-04T08:40:24.355Z,3.10
2022-09-04T08:43:19.206Z,2.90
2022-09-04T08:46:05.315Z,2.95
2022-09-04T08:49:10.708Z,2.55
2022-09-04T08:52:10.428Z,3.20
2022-09-04T08:54:37.905Z,2.88
2022-09-04T08:57:39.646Z,3.10
2022-09-04T09:00:17.646Z,3.25
2022-09-04T09:03:02.733Z,3.30
2022-09-04T09:06:06.986Z,3.15
2022-09-04T09:08:55.961Z,3.30
2022-09-04T09:11:45.088Z,2.65
2022-09-04T09:14:15.093Z,3.17
2022-09-04T09:16:50.990Z,2.88
2022-09-04T09:19:52.305Z,3.60
2022-09-04T09:22:31.865Z,2.97
2022-09-04T09:25:24.298Z,3.10
2022-09-04T09:27:57.246Z,2.88
2022-09-04T09:30:25.381Z,3.28
2022-09-04T09:33:34.755Z,3.30
2022-09-04T09:36:07.682Z,3.95
2022-09-04T09:39:02.452Z,3.35
2022-09-04T09:41:44.530Z,3.28
2022-09-04T09:44:36.122Z,3.40
2022-09-04T09:47:42.814Z,3.10
2022-09-04T09:50:22.685Z,3.20
2022-09-04T09:53:08.404Z,3.33
2022-09-04T09:56:09.733Z,3.53
2022-09-04T09:58:55.703Z,3.20
2022-09-04T10:01:25.715Z,3.20
2022-09-04T10:04:28.689Z,3.38
2022-09-04T10:07:21.606Z,3.13
2022-09-04T10:10:05.047Z,3.00
2022-09-04T10:12:35.053Z,3.08
2022-09-04T10:15:14.835Z,3.20
2022-09-04T10:18:21.239Z,3.00
2022-09-04T10:21:13.177Z,3.20
2022-09-04T10:24:07.184Z,3.22
2022-09-04T10:26:59.167Z,2.92
2022-09-04T10:29:38.633Z,2.65
2022-09-04T10:32:34.325Z,2.93
2022-09-04T10:35:11.175Z,2.90
2022-09-04T10:38:02.515Z,3.25
2022-09-04T10:40:46.934Z,2.90
2022-09-04T10:43:36.092Z,2.97
2022-09-04T10:46:30.118Z,3.42
2022-09-04T10:49:07.015Z,3.10
2022-09-04T10:51:54.426Z,3.35
2022-09-04T10:54:48.434Z,3.30
2022-09-04T10:57:23.177Z,3.40
2022-09-04T11:00:08.148Z,3.42
2022-09-04T11:03:14.046Z,4.07
2022-09-04T11:06:18.955Z,4.20
2022-09-04T11:08:46.100Z,3.63
2022-09-04T11:11:53.061Z,3.33
2022-09-04T11:15:00.550Z,3.20
2022-09-04T11:17:39.783Z,3.65
2022-09-04T11:20:24.228Z,3.20
2022-09-04T11:23:12.971Z,2.80
2022-09-04T11:26:17.539Z,3.15
2022-09-04T11:29:14.696Z,2.95
2022-09-04T11:31:48.541Z,3.08
2022-09-04T11:34:21.575Z,3.00
2022-09-04T11:37:10.282Z,2.47
2022-09-04T11:40:12.546Z,2.85
2022-09-04T11:43:04.001Z,2.67
2022-09-04T11:46:15.817Z,2.65
2022-09-04T11:48:53.370Z,2.95
2022-09-04T11:51:40.291Z,2.33
2022-09-04T11:54:43.603Z,2.88
2022-09-04T11:57:44.356Z,2.55
2022-09-04T12:00:17.603Z,2.88
2022-09-04T12:03:14.090Z,2.83
2022-09-04T12:05:58.208Z,2.80
2022-09-04T12:08:27.794Z,3.00
2022-09-04T12:11:03.929Z,2.40
2022-09-04T12:13:44.977Z,2.50
2022-09-04T12:16:53.472Z,2.53
2022-09-04T12:19:59.136Z,2.47
2022-09-04T12:22:50.376Z,2.55
2022-09-04T12:25:45.116Z,2.40
2022-09-04T12:28:35.068Z,2.30
2022-09-04T12:31:05.415Z,2.45
2022-09-04T12:33:44.692Z,2.30
2022-09-04T12:36:38.889Z,2.35
2022-09-04T12:39:36.744Z,1.90
2022-09-04T12:42:22.724Z,2.22
2022-09-04T12:45:08.014Z,1.70
2022-09-04T12:47:41.905Z,2.00
2022-09-04T12:50:57.935Z,2.22
2022-09-04T12:53:41.765Z,2.40
2022-09-04T12:56:23.042Z,2.50
2022-09-04T12:58:50.614Z,1.83
2022-09-04T13:01:24.495Z,2.40
2022-09-04T13:03:51.907Z,2.20
2022-09-04T13:06:53.506Z,2.40
2022-09-04T13:10:15.131Z,2.03
2022-09-04T13:13:03.805Z,2.00
2022-09-04T13:16:22.184Z,2.10
2022-09-04T13:18:58.905Z,2.20
2022-09-04T13:21:44.602Z,1.92
2022-09-04T13:24:26.852Z,2.17
2022-09-04T13:27:16.128Z,2.13
2022-09-04T13:30:03.490Z,2.15
2022-09-04T13:32:38.009Z,2.25
2022-09-04T13:35:19.304Z,2.60
2022-09-04T13:37:54.686Z,2.38
2022-09-04T13:40:28.785Z,2.40
2022-09-04T13:43:16.842Z,2.55
2022-09-04T13:45:47.654Z,2.47
2022-09-04T13:48:44.655Z,2.55
2022-09-04T13:51:40.526Z,2.40
2022-09-04T13:54:19.443Z,2.10
2022-09-04T13:57:05.286Z,2.00
2022-09-04T13:59:33.305Z,2.20
2022-09-04T14:02:08.906Z,2.30
2022-09-04T14:04:44.337Z,2.22
2022-09-04T14:07:24.809Z,2.35
2022-09-04T14:09:56.315Z,2.45
2022-09-04T14:12:55.052Z,2.40
2022-09-04T14:15:49.046Z,1.90
2022-09-04T14:18:45.606Z,2.20
2022-09-04T14:21:42.625Z,2.00
2022-09-04T14:24:33.000Z,2.13
2022-09-04T14:27:43.974Z,2.00
2022-09-04T14:30:18.450Z,2.20
2022-09-04T14:33:23.429Z,2.35
2022-09-04T14:36:12.826Z,2.05
2022-09-04T14:39:25.288Z,1.98
2022-09-04T14:42:22.498Z,2.13
2022-09-04T14:45:10.037Z,2.17
2022-09-04T14:47:55.163Z,2.20
2022-09-04T14:50:31.212Z,2.20
2022-09-04T14:53:03.990Z,2.30
2022-09-04T14:55:38.808Z,2.55
2022-09-04T14:58:30.962Z,2.25
2022-09-04T15:01:07.372Z,2.40
2022-09-04T15:03:45.837Z,2.30
2022-09-04T15:06:19.373Z,2.03
2022-09-04T15:08:50.810Z,2.17
2022-09-04T15:11:35.482Z,2.10
2022-09-04T15:14:24.559Z,2.17
2022-09-04T15:16:56.026Z,2.40
2022-09-04T15:19:46.936Z,2.10
2022-09-04T15:22:51.692Z,2.00
2022-09-04T15:25:18.795Z,2.15
2022-09-04T15:28:00.171Z,2.13
2022-09-04T15:30:40.529Z,1.90
2022-09-04T15:33:11.648Z,2.10
2022-09-04T15:35:40.897Z,2.35
2022-09-04T15:38:22.648Z,2.00
2022-09-04T15:43:53.968Z,2.15
2022-09-04T15:46:33.560Z,2.13
2022-09-04T15:49:23.810Z,2.20
2022-09-04T15:52:21.325Z,2.10
2022-09-04T15:54:59.272Z,2.33
2022-09-04T15:57:49.537Z,2.13
2022-09-04T16:00:23.129Z,2.22
2022-09-04T16:03:00.728Z,2.20
2022-09-04T16:05:50.453Z,2.17
2022-09-04T16:08:25.917Z,2.40
2022-09-04T16:11:18.690Z,2.08
2022-09-04T16:13:58.165Z,2.33
2022-09-04T16:16:34.358Z,2.17
2022-09-04T16:19:32.063Z,1.98
2022-09-04T16:22:21.653Z,1.90
2022-09-04T16:24:55.056Z,1.90
2022-09-04T16:27:28.111Z,1.83
2022-09-04T16:29:56.983Z,2.28
2022-09-04T16:32:29.012Z,2.00
2022-09-04T16:35:15.133Z,2.40
2022-09-04T16:38:10.135Z,2.30
2022-09-04T16:40:49.652Z,2.00
2022-09-04T16:43:34.411Z,2.47
2022-09-04T16:46:28.299Z,3.25
2022-09-04T16:49:04.642Z,2.42
2022-09-04T16:51:41.900Z,2.60
2022-09-04T16:54:37.495Z,2.47
2022-09-04T16:57:15.315Z,1.83
2022-09-04T16:59:48.734Z,2.00
2022-09-04T17:02:29.515Z,1.52
2022-09-04T17:05:40.204Z,2.05
2022-09-04T17:08:15.177Z,1.92
2022-09-04T17:11:07.010Z,1.80
2022-09-04T17:13:49.967Z,1.70
2022-09-04T17:16:23.381Z,1.80
2022-09-04T17:18:54.840Z,1.90
2022-09-04T17:25:24.390Z,1.60
2022-09-04T17:29:08.801Z,1.77
2022-09-04T17:29:13.398Z,2.03
2022-09-04T17:30:40.501Z,1.60
2022-09-04T17:37:13.351Z,1.60
2022-09-04T17:40:38.227Z,1.70
2022-09-04T17:40:44.479Z,2.13
2022-09-04T17:43:19.148Z,1.63
2022-09-04T17:46:06.883Z,1.30
2022-09-04T17:48:42.493Z,1.80
2022-09-04T17:51:18.202Z,1.63
2022-09-04T17:53:53.341Z,1.63
2022-09-04T17:56:36.587Z,1.70
2022-09-04T17:59:08.499Z,1.80
2022-09-04T18:01:43.384Z,1.75
2022-09-04T18:04:31.442Z,1.50
2022-09-04T18:08:07.753Z,1.63
2022-09-04T18:10:25.908Z,1.20
2022-09-04T18:13:05.256Z,1.23
2022-09-04T18:15:49.328Z,1.58
2022-09-04T18:18:27.811Z,1.48
2022-09-04T18:21:44.602Z,1.17
2022-09-04T18:24:49.045Z,1.40
2022-09-04T18:27:25.333Z,1.27
2022-09-04T18:32:43.225Z,1.30
2022-09-04T18:37:22.644Z,1.65
2022-09-04T18:37:27.094Z,1.42
2022-09-04T18:39:08.939Z,1.30
2022-09-04T18:50:29.376Z,1.17
2022-09-04T18:50:33.993Z,1.55
2022-09-04T18:51:14.060Z,1.60
2022-09-04T18:53:48.690Z,1.42
2022-09-04T18:56:42.728Z,1.60
2022-09-04T18:59:33.128Z,1.60
2022-09-04T19:02:29.293Z,1.38
2022-09-04T19:05:24.537Z,1.30
2022-09-04T19:08:00.093Z,1.70
2022-09-04T19:10:45.380Z,1.50
2022-09-04T19:13:36.707Z,1.38
2022-09-04T19:16:10.860Z,1.20
2022-09-04T19:18:48.412Z,1.33
2022-09-04T19:21:19.854Z,1.25
2022-09-04T19:24:05.507Z,1.33
2022-09-04T19:26:38.993Z,1.20
2022-09-04T19:29:17.360Z,1.30
2022-09-04T19:31:58.265Z,1.30
2022-09-04T19:34:38.395Z,1.38
2022-09-04T19:38:22.574Z,1.20
2022-09-04T19:45:55.933Z,1.70
2022-09-04T19:46:08.501Z,1.08
2022-09-04T19:46:29.757Z,1.27
2022-09-04T19:51:24.236Z,1.05
2022-09-04T19:53:32.177Z,1.20
2022-09-04T19:55:23.460Z,1.40
2022-09-04T19:58:05.239Z,1.25
2022-09-04T20:00:43.829Z,1.10
2022-09-04T20:03:30.412Z,1.33
2022-09-04T20:06:21.786Z,1.08
2022-09-04T20:09:11.093Z,1.00
2022-09-04T20:11:49.413Z,1.40
2022-09-04T20:14:29.137Z,1.00
2022-09-04T20:17:09.528Z,1.10
2022-09-04T20:22:25.529Z,1.40
2022-09-04T20:25:17.463Z,1.13
2022-09-04T20:27:50.018Z,1.40
2022-09-04T20:30:22.438Z,1.10
2022-09-04T20:33:08.221Z,1.08
2022-09-04T20:35:38.269Z,1.20
2022-09-04T20:38:33.169Z,1.33
2022-09-04T20:41:32.846Z,1.10
2022-09-04T20:44:14.930Z,1.27
2022-09-04T20:52:49.921Z,1.15
2022-09-04T20:53:00.395Z,1.10
2022-09-04T20:53:07.770Z,1.00
2022-09-04T20:56:00.811Z,1.17
2022-09-04T21:03:10.111Z,1.33
2022-09-04T21:03:19.366Z,1.35
2022-09-04T21:05:14.003Z,1.90
2022-09-04T21:08:15.866Z,1.90
2022-09-04T21:11:04.265Z,2.15
2022-09-04T21:13:56.405Z,1.40
2022-09-04T21:16:45.039Z,1.50
2022-09-04T21:19:33.208Z,2.20
2022-09-04T21:22:44.945Z,1.13
2022-09-04T21:25:31.460Z,1.10
2022-09-04T21:28:10.866Z,1.00
2022-09-04T21:31:13.494Z,0.93
2022-09-04T21:34:16.321Z,1.10
2022-09-04T21:36:53.825Z,1.42
2022-09-04T21:39:58.622Z,1.45
2022-09-04T21:43:01.286Z,1.67
2022-09-04T21:45:40.811Z,1.20
2022-09-04T21:48:31.736Z,1.17
2022-09-04T21:51:28.372Z,1.10
2022-09-04T21:54:04.610Z,1.30
2022-09-04T22:02:25.356Z,1.30
2022-09-04T22:02:44.602Z,1.20
2022-09-04T22:03:03.042Z,1.13
2022-09-04T22:05:39.708Z,1.13
2022-09-04T22:13:31.083Z,1.45
2022-09-04T22:13:31.595Z,1.13
2022-09-04T22:14:52.809Z,1.48
2022-09-04T22:17:59.649Z,1.20
2022-09-04T22:21:04.095Z,1.27
2022-09-04T22:23:44.902Z,1.10
2022-09-04T22:26:27.081Z,1.33
2022-09-04T22:29:12.533Z,1.20
2022-09-04T22:32:20.304Z,1.13
2022-09-04T22:35:31.362Z,1.23
2022-09-04T22:38:15.529Z,0.93
2022-09-04T22:40:56.224Z,1.10
2022-09-04T22:43:26.977Z,1.35
2022-09-04T22:46:17.751Z,1.30
2022-09-04T22:49:28.259Z,1.73
2022-09-04T22:52:13.507Z,1.60
2022-09-04T22:54:54.032Z,1.80
2022-09-04T23:00:22.823Z,1.42
2022-09-04T23:03:08.348Z,1.60
2022-09-04T23:06:08.837Z,1.42
2022-09-04T23:13:52.293Z,1.50
2022-09-04T23:13:53.998Z,2.10
2022-09-04T23:15:08.262Z,1.67
2022-09-04T23:19:45.273Z,1.55
2022-09-04T23:26:39.235Z,1.70
2022-09-04T23:26:44.822Z,1.42
2022-09-04T23:27:28.600Z,1.73
2022-09-04T23:30:27.630Z,1.63
2022-09-04T23:33:27.462Z,1.60
2022-09-04T23:36:33.230Z,1.30
2022-09-04T23:39:36.542Z,1.35
2022-09-04T23:42:21.293Z,1.30
2022-09-04T23:44:54.930Z,1.52
2022-09-04T23:47:58.727Z,1.80
2022-09-04T23:50:34.783Z,1.30
2022-09-04T23:53:41.624Z,1.40
2022-09-04T23:56:22.444Z,2.08
2022-09-04T23:59:24.125Z,1.73
